createdAt,value
2023-03-05T11:47:03.527Z,4.55
2023-03-05T11:49:29.378Z,5.80
2023-03-05T11:52:02.959Z,9.20
2023-03-05T11:54:34.665Z,4.90
2023-03-05T11:56:57.787Z,4.22
2023-03-05T11:59:26.380Z,5.20
2023-03-05T12:01:51.730Z,6.40
2023-03-05T12:04:17.172Z,9.52
2023-03-05T12:06:44.544Z,5.18
2023-03-05T12:09:14.748Z,5.47
2023-03-05T12:11:38.168Z,3.17
2023-03-05T12:14:07.187Z,3.88
2023-03-05T12:16:35.440Z,2.97
2023-03-05T12:19:21.142Z,5.45
2023-03-05T12:21:49.570Z,3.33
2023-03-05T12:24:38.487Z,3.75
2023-03-05T12:27:11.233Z,4.07
2023-03-05T12:29:41.928Z,3.08
2023-03-05T12:32:06.966Z,6.68
2023-03-05T12:34:50.467Z,4.03
2023-03-05T12:37:17.289Z,2.30
2023-03-05T12:39:52.773Z,3.28
2023-03-05T12:42:47.281Z,2.83
2023-03-05T12:45:37.941Z,2.88
2023-03-05T12:48:37.027Z,3.85
2023-03-05T12:51:00.324Z,5.78
2023-03-05T12:53:24.677Z,3.45
2023-03-05T12:55:56.725Z,137.27
2023-03-05T12:58:26.265Z,2.75
2023-03-05T13:00:53.190Z,3.88
2023-03-05T13:03:22.525Z,3.33
2023-03-05T13:05:50.680Z,4.35
2023-03-05T13:08:18.899Z,3.65
2023-03-05T13:10:43.315Z,716.27
2023-03-05T13:13:06.369Z,5.15
2023-03-05T13:15:36.349Z,4.63
2023-03-05T13:18:01.090Z,75.18
2023-03-05T13:20:36.143Z,5.05
2023-03-05T13:23:21.875Z,547.60
2023-03-05T13:25:46.950Z,783.38
2023-03-05T13:28:13.809Z,5.05
2023-03-05T13:30:36.856Z,3.22
2023-03-05T13:33:03.934Z,457.13
2023-03-05T13:35:26.972Z,4.50
2023-03-05T13:37:50.501Z,581.13
2023-03-05T13:40:21.667Z,4.35
2023-03-05T13:42:46.177Z,3.55
2023-03-05T13:45:23.448Z,3.72
2023-03-05T13:47:54.091Z,386.45
2023-03-05T13:50:25.716Z,4.78
2023-03-05T13:52:48.739Z,3.33
2023-03-05T13:55:16.852Z,4.03
2023-03-05T13:57:42.141Z,2.92
2023-03-05T14:00:25.752Z,777.15
2023-03-05T14:02:48.724Z,3.80
2023-03-05T14:05:16.517Z,4.20
2023-03-05T14:07:41.335Z,845.05
2023-03-05T14:10:05.629Z,677.83
2023-03-05T14:12:34.456Z,12.90
2023-03-05T14:14:59.358Z,847.58
2023-03-05T14:17:37.911Z,868.08
2023-03-05T14:20:27.422Z,371.70
2023-03-05T14:22:52.282Z,839.20
2023-03-05T14:25:34.651Z,827.25
2023-03-05T14:27:58.083Z,802.53
2023-03-05T14:30:22.792Z,706.70
2023-03-05T14:32:47.532Z,704.60
2023-03-05T14:35:19.431Z,506.65
2023-03-05T14:37:45.033Z,726.95
2023-03-05T14:40:19.712Z,734.77
2023-03-05T14:42:53.031Z,736.37
2023-03-05T14:45:18.676Z,709.20
2023-03-05T14:47:41.800Z,418.88
2023-03-05T14:50:07.213Z,721.20
2023-03-05T14:52:30.747Z,438.23
2023-03-05T14:54:55.211Z,392.35
2023-03-05T14:57:21.555Z,58.38
2023-03-05T14:59:44.731Z,2.30
2023-03-05T15:02:12.096Z,3.55
2023-03-05T15:04:35.046Z,3.17
2023-03-05T15:06:59.305Z,2.90
2023-03-05T15:09:22.496Z,2.50
2023-03-05T15:11:46.023Z,493.55
2023-03-05T15:14:08.964Z,2.83
2023-03-05T15:16:32.266Z,2.95
2023-03-05T15:18:55.983Z,730.73
2023-03-05T15:21:19.053Z,723.07
2023-03-05T15:23:44.600Z,717.80
2023-03-05T15:26:09.722Z,88.35
2023-03-05T15:28:34.595Z,2.47
2023-03-05T15:30:59.787Z,2.92
2023-03-05T15:33:23.589Z,4.30
2023-03-05T15:35:46.594Z,722.77
2023-03-05T15:38:10.175Z,710.97
2023-03-05T15:40:34.856Z,721.93
2023-03-05T15:42:58.655Z,714.10
2023-03-05T15:45:21.870Z,721.43
2023-03-05T15:47:44.791Z,699.93
2023-03-05T15:50:09.668Z,718.23
2023-03-05T15:52:32.990Z,724.90
2023-03-05T15:54:55.946Z,738.27
2023-03-05T15:57:22.840Z,761.53
2023-03-05T15:59:45.782Z,748.97
2023-03-05T16:02:09.228Z,795.10
2023-03-05T16:04:32.890Z,838.30
2023-03-05T16:06:58.896Z,799.57
2023-03-05T16:09:23.329Z,47.28
2023-03-05T16:11:49.150Z,600.20
2023-03-05T16:14:14.288Z,487.33
2023-03-05T16:16:37.768Z,146.67
2023-03-05T16:19:00.945Z,241.57
2023-03-05T16:21:24.005Z,202.13
2023-03-05T16:23:46.929Z,324.17
2023-03-05T16:26:10.634Z,5.40
2023-03-05T16:28:33.988Z,6.45
2023-03-05T16:30:59.272Z,6.63
2023-03-05T16:33:22.412Z,4.32
2023-03-05T16:35:45.400Z,4.22
2023-03-05T16:38:08.442Z,5.35
2023-03-05T16:40:51.343Z,3.20
2023-03-05T16:43:15.199Z,5.28
2023-03-05T16:45:38.395Z,6.10
2023-03-05T16:48:02.687Z,4.28
2023-03-05T16:50:25.694Z,4.43
2023-03-05T16:52:48.747Z,4.75
2023-03-05T16:55:12.119Z,4.38
2023-03-05T16:57:35.085Z,4.38
2023-03-05T16:59:58.586Z,3.05
2023-03-05T17:02:21.709Z,3.65
2023-03-05T17:04:46.394Z,2.85
2023-03-05T17:07:10.014Z,3.70
2023-03-05T17:09:33.099Z,3.58
2023-03-05T17:11:56.011Z,9.00
2023-03-05T17:14:19.116Z,3.55
2023-03-05T17:16:42.047Z,4.53
2023-03-05T17:19:05.054Z,3.95
2023-03-05T17:21:29.421Z,4.68
2023-03-05T17:23:52.469Z,4.00
2023-03-05T17:26:17.563Z,4.10
2023-03-05T17:28:41.092Z,3.90
2023-03-05T17:31:04.504Z,4.28
2023-03-05T17:33:27.866Z,4.25
2023-03-05T17:35:50.897Z,5.05
2023-03-05T17:38:15.543Z,6.90
2023-03-05T17:40:38.500Z,6.03
2023-03-05T17:43:01.618Z,4.97
2023-03-05T17:45:24.669Z,6.45
2023-03-05T17:47:47.787Z,8.65
2023-03-05T17:50:13.516Z,6.32
2023-03-05T17:52:38.236Z,7.22
2023-03-05T17:55:02.539Z,4.07
2023-03-05T17:57:25.626Z,5.43
2023-03-05T17:59:48.763Z,13.82
2023-03-05T18:02:12.093Z,9.70
2023-03-05T18:04:35.050Z,9.30
2023-03-05T18:06:58.531Z,10.48
2023-03-05T18:09:21.553Z,9.95
2023-03-05T18:11:46.013Z,9.98
2023-03-05T18:14:08.942Z,11.15
2023-03-05T18:16:32.170Z,9.38
2023-03-05T18:18:55.229Z,20.85
2023-03-05T18:21:22.018Z,28.23
2023-03-05T18:23:45.331Z,22.30
2023-03-05T18:26:08.409Z,20.70
2023-03-05T18:28:32.700Z,20.80
2023-03-05T18:30:55.658Z,16.23
2023-03-05T18:33:20.533Z,18.85
2023-03-05T18:35:43.485Z,18.05
2023-03-05T18:38:06.909Z,13.13
2023-03-05T18:40:32.557Z,12.60
2023-03-05T18:42:55.873Z,21.75
2023-03-05T18:45:23.036Z,65.07
2023-03-05T18:47:46.903Z,74.63
2023-03-05T18:50:11.275Z,73.78
2023-03-05T18:52:34.232Z,96.85
2023-03-05T18:54:57.219Z,52.53
2023-03-05T18:57:20.157Z,122.22
2023-03-05T18:59:43.251Z,46.85
2023-03-05T19:02:13.453Z,27.85
2023-03-05T19:04:36.488Z,23.08
2023-03-05T19:06:59.404Z,22.48
2023-03-05T19:09:38.964Z,18.73
2023-03-05T19:12:01.963Z,23.15
2023-03-05T19:14:25.212Z,57.90
2023-03-05T19:16:48.729Z,40.58
2023-03-05T19:19:16.563Z,55.70
2023-03-05T19:21:39.674Z,40.42
2023-03-05T19:24:02.775Z,134.50
2023-03-05T19:26:26.069Z,77.82
2023-03-05T19:28:49.181Z,65.47
2023-03-05T19:31:12.166Z,62.08
2023-03-05T19:33:35.220Z,37.92
2023-03-05T19:36:00.168Z,35.85
2023-03-05T19:38:23.073Z,34.53
2023-03-05T19:40:46.146Z,29.88
2023-03-05T19:43:09.349Z,29.10
2023-03-05T19:45:33.698Z,67.72
2023-03-05T19:47:56.608Z,60.97
2023-03-05T19:50:19.714Z,42.83
2023-03-05T19:52:44.053Z,36.53
2023-03-05T19:55:08.027Z,38.10
2023-03-05T19:57:31.082Z,31.63
2023-03-05T19:59:54.494Z,28.83
2023-03-05T20:02:20.777Z,25.93
2023-03-05T20:04:43.900Z,26.90
2023-03-05T20:07:07.198Z,28.67
2023-03-05T20:09:31.531Z,25.93
2023-03-05T20:11:54.501Z,22.27
2023-03-05T20:14:17.514Z,22.15
2023-03-05T20:16:40.804Z,22.48
2023-03-05T20:19:05.506Z,23.05
2023-03-05T20:21:30.487Z,19.42
2023-03-05T20:23:54.839Z,17.52
2023-03-05T20:26:19.557Z,15.35
2023-03-05T20:28:42.482Z,17.08
2023-03-05T20:31:06.008Z,15.10
2023-03-05T20:33:29.889Z,15.40
2023-03-05T20:35:53.396Z,16.50
2023-03-05T20:38:22.218Z,14.30
2023-03-05T20:40:45.361Z,16.15
2023-03-05T20:43:09.617Z,13.90
2023-03-05T20:45:34.776Z,16.85
2023-03-05T20:47:57.666Z,14.70
2023-03-05T20:50:20.789Z,14.05
2023-03-05T20:52:44.032Z,13.75
2023-03-05T20:55:08.517Z,12.85
2023-03-05T20:57:31.599Z,12.63
2023-03-05T20:59:55.825Z,14.48
2023-03-05T21:02:18.734Z,11.57
2023-03-05T21:04:41.712Z,12.73
2023-03-05T21:07:05.069Z,12.15
2023-03-05T21:09:28.790Z,10.73
2023-03-05T21:11:52.570Z,12.18
2023-03-05T21:14:15.516Z,10.77
2023-03-05T21:16:39.914Z,11.18
2023-03-05T21:19:02.959Z,10.55
2023-03-05T21:21:26.550Z,12.10
2023-03-05T21:23:49.693Z,10.05
2023-03-05T21:26:13.504Z,10.82
2023-03-05T21:28:36.779Z,8.68
2023-03-05T21:31:06.455Z,8.80
2023-03-05T21:33:31.471Z,9.85
2023-03-05T21:35:57.894Z,9.00
2023-03-05T21:38:22.950Z,9.50
2023-03-05T21:40:49.096Z,9.32
2023-03-05T21:43:13.089Z,7.72
2023-03-05T21:45:36.129Z,9.32
2023-03-05T21:47:59.796Z,8.18
2023-03-05T21:50:25.964Z,7.65
2023-03-05T21:52:48.923Z,9.18
2023-03-05T21:55:13.565Z,7.05
2023-03-05T21:57:36.520Z,7.30
2023-03-05T21:59:59.844Z,11.50
2023-03-05T22:02:24.367Z,19.30
2023-03-05T22:04:48.325Z,15.23
2023-03-05T22:07:13.125Z,13.23
2023-03-05T22:09:36.520Z,15.50
2023-03-05T22:11:59.791Z,12.63
2023-03-05T22:14:23.128Z,10.05
2023-03-05T22:16:46.126Z,10.35
2023-03-05T22:19:09.100Z,9.63
2023-03-05T22:21:32.524Z,8.52
